createdAt,value
2017-12-25T00:01:54.605Z,1.67
2017-12-25T00:04:22.309Z,1.52
2017-12-25T00:06:50.028Z,1.73
2017-12-25T00:09:17.751Z,1.85
2017-12-25T00:11:46.237Z,1.85
2017-12-25T00:14:14.709Z,2.12
2017-12-25T00:16:42.488Z,2.00
2017-12-25T00:19:10.965Z,1.98
2017-12-25T00:21:39.434Z,2.47
2017-12-25T00:24:07.137Z,1.98
2017-12-25T00:26:34.846Z,2.30
2017-12-25T00:29:02.557Z,2.10
2017-12-25T00:31:30.258Z,2.03
2017-12-25T00:33:57.961Z,1.80
2017-12-25T00:36:25.702Z,1.98
2017-12-25T00:38:53.393Z,1.92
2017-12-25T00:41:21.861Z,2.00
2017-12-25T00:43:49.558Z,1.95
2017-12-25T00:46:17.249Z,2.03
2017-12-25T00:48:44.942Z,1.80
2017-12-25T00:51:12.649Z,2.03
2017-12-25T00:53:40.352Z,2.00
2017-12-25T00:56:08.214Z,2.22
2017-12-25T00:58:36.081Z,1.98
2017-12-25T01:01:03.948Z,1.85
2017-12-25T01:03:31.816Z,2.15
2017-12-25T01:05:59.684Z,2.10
2017-12-25T01:08:27.550Z,2.17
2017-12-25T01:10:55.257Z,2.30
2017-12-25T01:13:23.721Z,2.05
2017-12-25T01:15:51.421Z,2.17
2017-12-25T01:18:19.115Z,2.40
2017-12-25T01:20:46.818Z,2.37
2017-12-25T01:23:14.513Z,2.33
2017-12-25T01:25:42.288Z,2.50
2017-12-25T01:28:09.981Z,2.30
2017-12-25T01:30:37.684Z,2.00
2017-12-25T01:33:06.169Z,1.85
2017-12-25T01:35:34.641Z,1.85
2017-12-25T01:38:03.105Z,2.10
2017-12-25T01:40:30.802Z,2.40
2017-12-25T01:42:59.273Z,2.35
2017-12-25T01:45:27.746Z,3.60
2017-12-25T01:47:56.229Z,3.25
2017-12-25T01:50:24.716Z,2.03
2017-12-25T01:52:53.267Z,2.15
2017-12-25T01:55:22.893Z,1.77
2017-12-25T01:57:59.690Z,2.30
2017-12-25T02:00:35.293Z,1.90
2017-12-25T02:03:03.168Z,1.75
2017-12-25T02:05:36.891Z,2.10
2017-12-25T02:08:12.549Z,1.67
2017-12-25T02:10:41.042Z,1.70
2017-12-25T02:13:09.529Z,1.75
2017-12-25T02:15:38.005Z,1.58
2017-12-25T02:18:06.489Z,1.67
2017-12-25T02:20:34.980Z,1.70
2017-12-25T02:23:02.790Z,1.67
2017-12-25T02:25:30.657Z,2.00
2017-12-25T02:27:58.627Z,1.83
2017-12-25T02:30:26.495Z,1.50
2017-12-25T02:32:54.362Z,1.73
2017-12-25T02:35:22.229Z,1.60
2017-12-25T02:37:50.097Z,1.50
2017-12-25T02:40:17.964Z,1.42
2017-12-25T02:42:45.832Z,1.40
2017-12-25T02:45:13.542Z,1.30
2017-12-25T02:47:42.005Z,1.30
2017-12-25T02:50:09.843Z,1.62
2017-12-25T02:52:37.711Z,1.58
2017-12-25T02:55:05.578Z,1.58
2017-12-25T02:57:33.444Z,1.30
2017-12-25T03:00:01.311Z,1.37
2017-12-25T03:02:29.180Z,1.45
2017-12-25T03:04:57.047Z,1.42
2017-12-25T03:07:24.915Z,1.33
2017-12-25T03:09:52.781Z,1.40
2017-12-25T03:12:20.506Z,1.50
2017-12-25T03:14:48.201Z,1.55
2017-12-25T03:17:15.929Z,1.70
2017-12-25T03:19:43.635Z,1.50
2017-12-25T03:22:11.338Z,1.62
2017-12-25T03:24:39.809Z,1.45
2017-12-25T03:27:07.515Z,1.62
2017-12-25T03:29:35.213Z,1.80
2017-12-25T03:32:02.916Z,1.40
2017-12-25T03:34:31.556Z,1.45
2017-12-25T03:36:59.424Z,1.25
2017-12-25T03:39:27.120Z,1.40
2017-12-25T03:41:55.601Z,1.80
2017-12-25T03:44:23.321Z,1.73
2017-12-25T03:46:51.201Z,1.70
2017-12-25T03:49:19.888Z,1.67
2017-12-25T03:51:47.755Z,1.62
2017-12-25T03:54:15.622Z,1.60
2017-12-25T03:56:43.489Z,1.60
2017-12-25T03:59:11.357Z,1.67
2017-12-25T04:01:39.326Z,1.60
2017-12-25T04:04:07.193Z,1.92
2017-12-25T04:06:34.913Z,1.48
2017-12-25T04:09:02.628Z,1.50
2017-12-25T04:11:30.337Z,1.20
2017-12-25T04:13:58.055Z,1.70
2017-12-25T04:16:25.774Z,1.50
2017-12-25T04:18:53.492Z,1.83
2017-12-25T04:21:21.209Z,1.83
2017-12-25T04:23:50.588Z,1.65
2017-12-25T04:26:19.061Z,1.83
2017-12-25T04:28:47.558Z,1.52
2017-12-25T04:31:15.265Z,1.58
2017-12-25T04:33:42.984Z,1.20
2017-12-25T04:36:10.799Z,1.95
2017-12-25T04:38:38.506Z,1.55
2017-12-25T04:41:06.982Z,1.55
2017-12-25T04:43:35.477Z,1.45
2017-12-25T04:46:03.962Z,1.40
2017-12-25T04:48:31.700Z,1.83
2017-12-25T04:50:59.414Z,1.55
2017-12-25T04:53:27.145Z,1.30
2017-12-25T04:55:55.625Z,1.50
2017-12-25T04:58:24.119Z,1.30
2017-12-25T05:00:51.849Z,1.52
2017-12-25T05:03:19.572Z,1.58
2017-12-25T05:05:47.291Z,1.30
2017-12-25T05:08:15.778Z,1.40
2017-12-25T05:10:44.264Z,1.52
2017-12-25T05:13:12.749Z,1.60
2017-12-25T05:15:41.231Z,1.30
2017-12-25T05:18:09.726Z,1.85
2017-12-25T05:20:57.413Z,1.60
2017-12-25T05:23:59.880Z,1.55
2017-12-25T05:29:29.997Z,2.20
2017-12-25T05:31:57.830Z,1.50
2017-12-25T05:34:27.278Z,2.15
2017-12-25T05:36:55.001Z,1.83
2017-12-25T05:39:23.478Z,1.80
2017-12-25T05:41:52.018Z,1.70
2017-12-25T05:44:19.884Z,1.70
2017-12-25T05:46:47.582Z,2.05
2017-12-25T05:49:16.059Z,1.80
2017-12-25T05:51:43.753Z,1.50
2017-12-25T05:54:11.559Z,1.33
2017-12-25T05:56:39.354Z,1.60
2017-12-25T05:59:07.908Z,1.55
2017-12-25T06:01:37.949Z,1.50
2017-12-25T06:04:07.771Z,1.10
2017-12-25T06:06:38.042Z,1.20
2017-12-25T06:09:08.066Z,1.30
2017-12-25T06:11:38.038Z,1.05
2017-12-25T06:14:08.577Z,0.90
2017-12-25T06:16:37.213Z,1.15
2017-12-25T06:19:05.080Z,1.12
2017-12-25T06:21:32.948Z,0.95
2017-12-25T06:24:00.650Z,1.10
2017-12-25T06:26:29.917Z,0.90
2017-12-25T06:28:57.618Z,1.15
2017-12-25T06:31:25.348Z,1.00
2017-12-25T06:34:14.161Z,0.95
2017-12-25T06:36:44.286Z,1.25
2017-12-25T06:39:14.511Z,0.80
2017-12-25T06:41:47.114Z,1.12
2017-12-25T06:44:16.966Z,0.90
2017-12-25T06:46:47.462Z,1.10
2017-12-25T06:49:17.570Z,0.98
2017-12-25T06:51:48.025Z,1.42
2017-12-25T06:54:15.881Z,1.20
2017-12-25T06:59:17.755Z,1.00
2017-12-25T07:01:45.467Z,1.00
2017-12-25T07:04:13.186Z,1.42
2017-12-25T07:06:40.897Z,1.02
2017-12-25T07:09:11.139Z,1.23
2017-12-25T07:11:38.907Z,1.50
2017-12-25T07:14:09.348Z,1.05
2017-12-25T07:16:39.764Z,1.30
2017-12-25T07:19:09.776Z,1.00
2017-12-25T07:21:39.704Z,0.90
2017-12-25T07:24:07.422Z,1.17
2017-12-25T07:26:35.910Z,0.90
2017-12-25T07:29:04.402Z,1.08
2017-12-25T07:31:32.121Z,0.90
2017-12-25T07:33:59.842Z,0.93
2017-12-25T07:36:27.561Z,1.02
2017-12-25T07:38:55.274Z,0.85
2017-12-25T07:41:23.775Z,0.75
2017-12-25T07:43:51.490Z,0.88
2017-12-25T07:46:19.996Z,0.70
2017-12-25T07:48:47.749Z,0.88
2017-12-25T07:51:15.476Z,0.82
2017-12-25T07:53:43.194Z,1.00
2017-12-25T07:56:10.909Z,0.85
2017-12-25T07:58:38.756Z,0.82
2017-12-25T08:01:06.494Z,0.90
2017-12-25T08:03:34.230Z,0.80
2017-12-25T08:06:02.708Z,0.85
2017-12-25T08:08:31.352Z,0.98
2017-12-25T08:10:59.222Z,0.80
2017-12-25T08:13:26.937Z,1.50
2017-12-25T08:15:54.663Z,1.02
2017-12-25T08:18:22.394Z,0.90
2017-12-25T08:20:50.119Z,0.90
2017-12-25T08:23:18.615Z,1.00
2017-12-25T08:25:46.354Z,0.90
2017-12-25T08:28:14.835Z,0.90
2017-12-25T08:30:43.318Z,0.80
2017-12-25T08:33:11.819Z,0.98
2017-12-25T08:35:39.541Z,0.80
2017-12-25T08:38:07.264Z,0.90
2017-12-25T08:40:35.060Z,0.80
2017-12-25T08:43:02.943Z,0.80
2017-12-25T08:45:30.670Z,1.00
2017-12-25T08:47:58.390Z,0.80
2017-12-25T08:50:26.874Z,0.80
2017-12-25T08:52:55.372Z,0.75
2017-12-25T08:55:23.135Z,0.88
2017-12-25T08:57:51.613Z,0.70
2017-12-25T09:00:20.111Z,1.02
2017-12-25T09:02:47.844Z,0.80
2017-12-25T09:05:16.330Z,0.70
2017-12-25T09:07:44.817Z,0.80
2017-12-25T09:10:13.286Z,0.80
2017-12-25T09:12:41.780Z,0.80
2017-12-25T09:15:10.268Z,1.17
2017-12-25T09:17:38.749Z,1.10
2017-12-25T09:20:07.226Z,0.80
2017-12-25T09:22:35.709Z,1.33
2017-12-25T09:25:04.201Z,1.00
2017-12-25T09:27:31.946Z,0.93
2017-12-25T09:30:00.599Z,0.90
2017-12-25T09:32:28.314Z,0.80
2017-12-25T09:34:56.058Z,1.00
2017-12-25T09:37:23.770Z,1.10
2017-12-25T09:39:51.491Z,1.25
2017-12-25T09:42:20.142Z,1.33
2017-12-25T09:44:48.011Z,1.10
2017-12-25T09:47:15.774Z,1.10
2017-12-25T09:49:43.498Z,1.20
2017-12-25T09:52:11.206Z,1.20
2017-12-25T09:54:38.926Z,1.10
2017-12-25T09:57:06.643Z,1.20
2017-12-25T09:59:34.366Z,1.30
2017-12-25T10:02:02.074Z,1.37
2017-12-25T10:04:29.778Z,1.30
2017-12-25T10:06:57.496Z,1.90
2017-12-25T10:09:25.247Z,1.50
2017-12-25T10:11:53.115Z,1.60
2017-12-25T10:14:20.982Z,1.70
2017-12-25T10:16:48.697Z,1.77
2017-12-25T10:19:16.453Z,1.77
2017-12-25T10:21:44.948Z,1.45
2017-12-25T10:24:12.688Z,1.50
2017-12-25T10:26:40.406Z,1.20
2017-12-25T10:29:08.123Z,1.33
2017-12-25T10:31:36.770Z,1.30
2017-12-25T10:34:04.639Z,1.62
2017-12-25T10:36:32.410Z,1.33
2017-12-25T10:39:00.132Z,1.30
2017-12-25T10:41:27.852Z,1.20
2017-12-25T10:43:55.705Z,1.60
2017-12-25T10:46:23.435Z,1.20
2017-12-25T10:48:51.309Z,1.27
2017-12-25T10:51:19.038Z,1.10
2017-12-25T10:53:49.325Z,1.42
2017-12-25T10:56:17.051Z,1.10
2017-12-25T10:58:44.771Z,1.30
2017-12-25T11:01:12.509Z,1.40
2017-12-25T11:03:40.376Z,1.25
2017-12-25T11:06:08.244Z,1.50
2017-12-25T11:08:35.959Z,1.40
2017-12-25T11:11:03.678Z,1.27
2017-12-25T11:13:31.398Z,1.65
2017-12-25T11:15:59.107Z,2.00
2017-12-25T11:18:26.965Z,1.30
2017-12-25T11:20:55.654Z,1.73
2017-12-25T11:23:23.521Z,1.95
2017-12-25T11:25:51.230Z,1.67
2017-12-25T11:28:19.710Z,1.77
2017-12-25T11:30:48.491Z,1.77
2017-12-25T11:33:17.139Z,1.50
2017-12-25T11:35:45.008Z,1.80
2017-12-25T11:38:12.874Z,1.70
2017-12-25T11:40:40.609Z,2.75
2017-12-25T11:43:08.339Z,2.40
2017-12-25T11:45:36.818Z,2.70
2017-12-25T11:48:05.331Z,2.30
2017-12-25T11:50:33.132Z,2.42
2017-12-25T11:53:00.853Z,9.52
2017-12-25T11:55:28.591Z,1.60
2017-12-25T11:57:56.427Z,1.40
2017-12-25T12:00:24.175Z,1.50
2017-12-25T12:02:51.991Z,1.80
2017-12-25T12:05:20.644Z,1.55
2017-12-25T12:07:48.513Z,1.10
2017-12-25T12:10:16.378Z,1.48
2017-12-25T12:12:44.090Z,1.40
2017-12-25T12:15:12.577Z,1.30
2017-12-25T12:17:40.290Z,1.50
2017-12-25T12:20:08.258Z,1.42
2017-12-25T12:22:36.129Z,1.20
2017-12-25T12:25:04.099Z,1.20
2017-12-25T12:27:31.962Z,2.00
2017-12-25T12:29:59.678Z,2.45
2017-12-25T12:32:27.409Z,1.98
2017-12-25T12:34:55.257Z,2.67
2017-12-25T12:37:23.148Z,2.20
2017-12-25T12:39:51.659Z,2.20
2017-12-25T12:42:19.386Z,1.40
2017-12-25T12:44:47.115Z,1.70
2017-12-25T12:47:14.852Z,1.60
2017-12-25T12:49:42.573Z,1.80
2017-12-25T12:52:10.429Z,1.92
2017-12-25T12:54:38.151Z,2.67
2017-12-25T12:57:05.885Z,3.10
2017-12-25T12:59:33.598Z,4.25
2017-12-25T13:02:01.492Z,6.25
2017-12-25T13:04:29.360Z,8.27
2017-12-25T13:06:57.225Z,8.40
2017-12-25T13:09:25.910Z,8.25
2017-12-25T13:11:53.646Z,7.45
2017-12-25T13:14:21.543Z,8.88
2017-12-25T13:16:49.589Z,8.23
2017-12-25T13:19:17.379Z,8.70
2017-12-25T13:21:45.248Z,7.97
2017-12-25T13:24:13.117Z,8.15
2017-12-25T13:26:40.829Z,9.75
2017-12-25T13:29:09.363Z,7.80
2017-12-25T13:31:37.229Z,7.25
2017-12-25T13:34:05.096Z,8.35
2017-12-25T13:36:32.963Z,9.63
2017-12-25T13:39:00.832Z,9.63
2017-12-25T13:41:28.699Z,7.95
2017-12-25T13:43:56.427Z,8.90
2017-12-25T13:46:24.179Z,8.60
2017-12-25T13:48:51.908Z,7.85
2017-12-25T13:51:19.622Z,9.80
2017-12-25T13:53:47.337Z,9.48
2017-12-25T13:56:15.078Z,9.93
2017-12-25T13:58:42.848Z,10.00
2017-12-25T14:01:10.574Z,8.50
2017-12-25T14:03:38.302Z,9.10
2017-12-25T14:06:06.030Z,8.60
2017-12-25T14:08:33.908Z,8.32
2017-12-25T14:11:01.630Z,8.00
2017-12-25T14:13:29.440Z,9.07
2017-12-25T14:15:57.304Z,9.95
2017-12-25T14:18:25.175Z,10.50
2017-12-25T14:20:52.905Z,11.43
2017-12-25T14:23:20.634Z,11.25
2017-12-25T14:25:49.220Z,10.27
2017-12-25T14:28:17.716Z,10.30
2017-12-25T14:30:45.434Z,9.98
2017-12-25T14:33:13.302Z,10.32
2017-12-25T14:35:41.166Z,9.02
2017-12-25T14:38:09.033Z,10.75
2017-12-25T14:40:36.900Z,8.63
2017-12-25T14:43:04.767Z,9.05
2017-12-25T14:45:32.635Z,10.00
2017-12-25T14:48:00.502Z,9.48
2017-12-25T14:50:28.234Z,9.02
2017-12-25T14:52:55.958Z,9.13
2017-12-25T14:55:23.697Z,9.00
2017-12-25T14:57:51.566Z,10.18
2017-12-25T15:00:19.430Z,8.75
2017-12-25T15:02:47.304Z,6.90
2017-12-25T15:05:15.164Z,9.77
2017-12-25T15:07:43.031Z,8.45
2017-12-25T15:10:10.748Z,9.45
2017-12-25T15:12:38.466Z,8.70
2017-12-25T15:15:06.226Z,7.25
2017-12-25T15:17:33.964Z,9.05
2017-12-25T15:20:01.752Z,8.88
2017-12-25T15:22:29.621Z,8.88
2017-12-25T15:24:57.338Z,9.02
2017-12-25T15:27:25.052Z,9.23
2017-12-25T15:29:52.782Z,9.50
2017-12-25T15:32:20.501Z,9.00
2017-12-25T15:34:48.342Z,10.25
2017-12-25T15:37:18.550Z,9.82
2017-12-25T15:39:48.200Z,9.88
2017-12-25T15:42:16.035Z,10.50
2017-12-25T15:44:44.541Z,10.73
2017-12-25T15:47:12.305Z,8.75
2017-12-25T15:49:40.022Z,9.73
2017-12-25T15:52:07.801Z,10.20
2017-12-25T15:54:36.072Z,10.55
2017-12-25T15:57:04.627Z,11.48
2017-12-25T15:59:33.433Z,11.68
2017-12-25T16:02:01.246Z,11.70
2017-12-25T16:04:29.051Z,10.77
2017-12-25T16:06:56.794Z,10.55
2017-12-25T16:09:25.450Z,10.70
2017-12-25T16:11:53.314Z,10.60
2017-12-25T16:14:21.182Z,11.38
2017-12-25T16:16:49.049Z,10.82
2017-12-25T16:19:16.917Z,10.57
2017-12-25T16:21:44.785Z,11.77
2017-12-25T16:24:15.531Z,11.50
2017-12-25T16:26:43.386Z,11.27
2017-12-25T16:29:11.253Z,11.57
2017-12-25T16:31:39.121Z,11.63
2017-12-25T16:34:06.988Z,11.52
2017-12-25T16:36:34.855Z,11.18
2017-12-25T16:39:02.723Z,11.90
2017-12-25T16:41:30.590Z,10.77
2017-12-25T16:43:58.457Z,11.77
2017-12-25T16:46:26.325Z,12.70
2017-12-25T16:48:54.228Z,11.52
2017-12-25T16:51:22.775Z,11.63
2017-12-25T16:53:50.498Z,11.35
2017-12-25T16:56:18.306Z,11.50
2017-12-25T16:58:46.206Z,11.12
2017-12-25T17:01:14.861Z,10.68
2017-12-25T17:03:42.730Z,10.30
2017-12-25T17:06:10.594Z,10.80
2017-12-25T17:08:40.489Z,9.82
2017-12-25T17:11:10.807Z,10.77
2017-12-25T17:13:38.702Z,8.70
2017-12-25T17:16:06.569Z,10.15
2017-12-25T17:18:34.437Z,8.73
2017-12-25T17:21:02.304Z,10.35
2017-12-25T17:23:30.171Z,10.52
2017-12-25T17:25:58.038Z,10.02
2017-12-25T17:28:25.804Z,10.25
2017-12-25T17:30:53.671Z,10.40
2017-12-25T17:33:21.542Z,10.82
2017-12-25T17:35:49.406Z,10.10
2017-12-25T17:38:17.273Z,10.13
2017-12-25T17:40:45.040Z,10.70
2017-12-25T17:43:12.905Z,10.65
2017-12-25T17:45:40.773Z,10.40
2017-12-25T17:48:08.643Z,11.55
2017-12-25T17:50:36.507Z,11.50
2017-12-25T17:53:04.375Z,10.10
2017-12-25T17:55:32.242Z,11.77
2017-12-25T17:58:00.142Z,11.48
2017-12-25T18:00:28.796Z,12.10
2017-12-25T18:02:56.663Z,12.25
2017-12-25T18:05:24.533Z,12.63
2017-12-25T18:07:52.397Z,13.62
2017-12-25T18:10:20.267Z,12.95
2017-12-25T18:12:48.132Z,11.40
2017-12-25T18:15:16.000Z,12.55
2017-12-25T18:17:43.866Z,13.80
2017-12-25T18:20:11.734Z,11.85
2017-12-25T18:22:39.602Z,12.70
2017-12-25T18:25:07.469Z,12.15
2017-12-25T18:27:35.335Z,14.25
2017-12-25T18:30:03.203Z,12.75
2017-12-25T18:32:31.071Z,12.90
2017-12-25T18:34:58.938Z,14.90
2017-12-25T18:37:26.805Z,13.35
2017-12-25T18:39:54.672Z,14.87
2017-12-25T18:42:22.540Z,13.60
2017-12-25T18:44:50.406Z,14.23
2017-12-25T18:47:18.274Z,13.27
2017-12-25T18:49:46.148Z,13.45
2017-12-25T18:52:14.010Z,13.55
2017-12-25T18:54:41.877Z,14.38
2017-12-25T18:57:09.747Z,13.93
2017-12-25T18:59:37.611Z,13.23
2017-12-25T19:02:05.477Z,13.82
2017-12-25T19:04:33.348Z,14.32
2017-12-25T19:07:01.216Z,14.40
2017-12-25T19:09:29.083Z,13.30
2017-12-25T19:11:56.947Z,15.88
2017-12-25T19:14:24.814Z,14.75
2017-12-25T19:16:52.682Z,15.32
2017-12-25T19:19:20.552Z,14.30
2017-12-25T19:21:48.422Z,14.90
2017-12-25T19:24:16.284Z,14.85
2017-12-25T19:26:44.152Z,15.45
2017-12-25T19:29:12.121Z,13.77
2017-12-25T19:31:39.989Z,13.40
2017-12-25T19:34:07.855Z,12.37
2017-12-25T19:36:35.724Z,13.20
2017-12-25T19:39:04.409Z,14.20
2017-12-25T19:41:32.175Z,15.10
2017-12-25T19:44:00.042Z,13.98
2017-12-25T19:46:27.908Z,13.85
2017-12-25T19:48:55.776Z,16.80
2017-12-25T19:51:23.644Z,16.37
2017-12-25T19:53:51.512Z,14.93
2017-12-25T19:56:19.379Z,15.32
2017-12-25T19:58:47.239Z,15.88
2017-12-25T20:01:15.607Z,15.48
2017-12-25T20:03:43.493Z,16.80
2017-12-25T20:06:11.361Z,14.80
2017-12-25T20:08:39.228Z,17.37
2017-12-25T20:11:07.095Z,15.63
2017-12-25T20:13:34.965Z,16.33
2017-12-25T20:16:02.830Z,14.60
2017-12-25T20:18:30.696Z,15.80
2017-12-25T20:20:58.564Z,16.98
2017-12-25T20:23:26.432Z,17.58
2017-12-25T20:25:54.299Z,17.23
2017-12-25T20:28:22.026Z,16.40
2017-12-25T20:30:49.745Z,18.33
2017-12-25T20:33:17.593Z,17.20
2017-12-25T20:35:45.460Z,18.50
2017-12-25T20:38:13.329Z,19.33
2017-12-25T20:40:41.401Z,19.73
2017-12-25T20:43:09.268Z,19.55
2017-12-25T20:45:37.134Z,19.10
2017-12-25T20:48:05.002Z,20.35
2017-12-25T20:50:32.875Z,19.58
2017-12-25T20:53:00.736Z,18.27
2017-12-25T20:55:28.607Z,17.52
2017-12-25T20:57:56.470Z,17.10
2017-12-25T21:00:24.339Z,20.12
2017-12-25T21:02:52.207Z,19.75
2017-12-25T21:05:20.073Z,19.75
2017-12-25T21:07:47.939Z,17.92
2017-12-25T21:10:15.808Z,20.08
2017-12-25T21:12:43.679Z,20.20
2017-12-25T21:15:11.545Z,19.62
2017-12-25T21:17:39.410Z,19.00
2017-12-25T21:20:07.277Z,20.25
2017-12-25T21:22:35.073Z,18.92
2017-12-25T21:25:03.618Z,19.87
2017-12-25T21:27:31.391Z,19.52
2017-12-25T21:29:59.258Z,18.30
2017-12-25T21:32:26.974Z,21.05
2017-12-25T21:34:54.788Z,18.62
2017-12-25T21:37:22.655Z,17.55
2017-12-25T21:39:50.523Z,20.15
2017-12-25T21:42:18.396Z,17.90
2017-12-25T21:44:46.258Z,18.20
2017-12-25T21:47:14.125Z,18.20
2017-12-25T21:49:42.709Z,21.10
2017-12-25T21:52:10.577Z,19.73
2017-12-25T21:54:38.445Z,21.10
2017-12-25T21:57:06.312Z,19.95
2017-12-25T21:59:34.178Z,20.73
2017-12-25T22:02:02.148Z,20.20
2017-12-25T22:04:30.025Z,19.65
2017-12-25T22:06:58.701Z,20.10
2017-12-25T22:09:26.569Z,22.55
2017-12-25T22:11:54.446Z,21.80
2017-12-25T22:14:22.303Z,22.35
2017-12-25T22:16:50.172Z,20.55
2017-12-25T22:19:18.039Z,23.23
2017-12-25T22:21:45.957Z,23.58
2017-12-25T22:24:14.592Z,23.45
2017-12-25T22:26:42.304Z,24.48
2017-12-25T22:29:10.941Z,26.70
2017-12-25T22:31:38.809Z,23.83
2017-12-25T22:34:06.676Z,27.08
2017-12-25T22:36:34.543Z,28.23
2017-12-25T22:39:02.411Z,26.73
2017-12-25T22:41:30.278Z,26.95
2017-12-25T22:43:58.145Z,25.60
2017-12-25T22:46:26.012Z,27.02
2017-12-25T22:48:53.880Z,26.35
2017-12-25T22:51:21.747Z,25.50
2017-12-25T22:53:49.615Z,25.70
2017-12-25T22:56:17.481Z,25.95
2017-12-25T22:58:45.356Z,27.27
2017-12-25T23:01:13.217Z,28.00
2017-12-25T23:03:41.083Z,27.17
2017-12-25T23:06:08.952Z,25.55
2017-12-25T23:08:36.821Z,28.15
2017-12-25T23:11:04.686Z,27.55
2017-12-25T23:13:32.555Z,30.42
2017-12-25T23:16:00.423Z,29.55
2017-12-25T23:18:28.289Z,31.00
2017-12-25T23:20:56.158Z,27.33
2017-12-25T23:23:24.023Z,27.15
2017-12-25T23:25:51.890Z,27.58
2017-12-25T23:28:19.760Z,27.80
2017-12-25T23:30:47.627Z,31.02
2017-12-25T23:33:15.421Z,31.33
2017-12-25T23:35:43.256Z,29.12
2017-12-25T23:38:11.179Z,28.73
2017-12-25T23:40:39.811Z,26.98
2017-12-25T23:43:07.679Z,26.55
2017-12-25T23:45:35.545Z,27.50
2017-12-25T23:48:03.412Z,28.38
2017-12-25T23:50:31.280Z,29.12
2017-12-25T23:52:59.148Z,27.02
2017-12-25T23:55:27.015Z,31.73
2017-12-25T23:57:54.882Z,29.70
